Airfield :
LOGIN :

Register | Disclaimer

   EN    FR    IT 

 










Legend :    VFR   Marginal VFR   IFR   Intensive IFR   Very Intensive IFR
Visi :
Ceiling :
>= 8 km
>= 3000ft
5 to 8 km
1000 to 3000 ft
1500m to 5 km
500 to 1000 ft
800 to 1500m
200 to 500 ft
< 800m
< 200 ft
Symbols :   Thunderstorms  Fog  Heavy snow  Heavy precipitations  Wind > 20 kt
SIGMETs :     Misc.  Thunderstorms  Icing  Turbulence  Mountain Waves  Volcanic Ashes







- Airport Elevation : 776 ft
- IATA code : RMS


ETAR - Ramstein Air Base

CURRENT METAR :
  • 231358Z 28015KT 9999 SCT060 BKN200 26/13 A3007 RMK AO2A SLP180 T02560125 $

EXPIRED METARs :
  • 231258Z 28017G20KT 9999 FEW060 25/12 A3006 RMK AO2A SLP177 T02510118 $
  • 231158Z 27009G18KT 9999 SCT050 25/11 A3007 RMK AO2A SLP179 60000 T02490112 10249 20143 50002 $

TAF AMD TAF ETAR
Valid from the 23 at 13:00 until the 24 at 16:00 UTC


231306Z 2313/2416 29012KT 9999 SCT050 QNH3006INS
TEMPO 2313/2317 30012G20KT
BECMG 2401/2402 30006KT 9999 SCT030 BKN050 QNH3018INS
BECMG 2408/2409 34009KT 9999 BKN030 QNH3021INS TX25/2313Z TN09/2403Z
No reported NOTAMs for that airfield.



MET'MAP, your aeronautical weather chart ! - Copyright ORBIFLY December 2007 - Disclaimer

ORBIFLY MET'MAP TEAM :

Programming & Development : Alexandra Zaïnal
Concept & Development : Baudouin d'Aumeries
Co-Development & Prog : Marc-Olivier Méhu
Technical & hardware support : Manuel Goepfert

Contact : metmap@orbifly.com




SOURCES & CREDITS :

   NOAA